sensor_id;sensor_type;location;lat;lon;timestamp;P1;durP1;ratioP1;P2;durP2;ratioP2
17261;SDS011;9873;52.236;21.002;2023-04-07T00:08:42;38.67;;;17.60;;
17261;SDS011;9873;52.236;21.002;2023-04-07T00:18:44;30.67;;;15.10;;
17261;SDS011;9873;52.236;21.002;2023-04-07T00:28:47;37.97;;;17.43;;
17261;SDS011;9873;52.236;21.002;2023-04-07T00:38:49;51.80;;;17.73;;
17261;SDS011;9873;52.236;21.002;2023-04-07T00:48:53;44.40;;;17.03;;
17261;SDS011;9873;52.236;21.002;2023-04-07T00:58:55;34.63;;;17.97;;
17261;SDS011;9873;52.236;21.002;2023-04-07T01:09:17;41.97;;;15.73;;
17261;SDS011;9873;52.236;21.002;2023-04-07T01:30:02;43.43;;;16.83;;
17261;SDS011;9873;52.236;21.002;2023-04-07T01:40:05;47.17;;;17.63;;
17261;SDS011;9873;52.236;21.002;2023-04-07T01:50:13;41.60;;;19.63;;
17261;SDS011;9873;52.236;21.002;2023-04-07T02:00:16;49.53;;;20.60;;
17261;SDS011;9873;52.236;21.002;2023-04-07T02:10:28;48.07;;;19.47;;
17261;SDS011;9873;52.236;21.002;2023-04-07T02:20:34;56.77;;;21.33;;
17261;SDS011;9873;52.236;21.002;2023-04-07T02:30:47;50.00;;;19.53;;
17261;SDS011;9873;52.236;21.002;2023-04-07T02:40:50;65.73;;;24.43;;
17261;SDS011;9873;52.236;21.002;2023-04-07T02:50:52;56.47;;;24.23;;
17261;SDS011;9873;52.236;21.002;2023-04-07T03:00:55;64.80;;;20.60;;
17261;SDS011;9873;52.236;21.002;2023-04-07T03:11:03;55.83;;;24.70;;
17261;SDS011;9873;52.236;21.002;2023-04-07T03:21:06;55.53;;;24.03;;
17261;SDS011;9873;52.236;21.002;2023-04-07T03:31:12;57.67;;;23.83;;
17261;SDS011;9873;52.236;21.002;2023-04-07T03:41:23;72.43;;;29.10;;
17261;SDS011;9873;52.236;21.002;2023-04-07T03:51:27;62.60;;;24.50;;
17261;SDS011;9873;52.236;21.002;2023-04-07T04:01:33;71.37;;;26.37;;
17261;SDS011;9873;52.236;21.002;2023-04-07T04:11:47;65.43;;;26.13;;
17261;SDS011;9873;52.236;21.002;2023-04-07T04:21:50;51.37;;;24.10;;
17261;SDS011;9873;52.236;21.002;2023-04-07T04:31:57;55.83;;;24.23;;
17261;SDS011;9873;52.236;21.002;2023-04-07T04:42:04;49.37;;;22.93;;
17261;SDS011;9873;52.236;21.002;2023-04-07T04:52:09;53.27;;;25.83;;
17261;SDS011;9873;52.236;21.002;2023-04-07T05:02:18;55.50;;;26.77;;
17261;SDS011;9873;52.236;21.002;2023-04-07T05:12:23;58.77;;;26.07;;
17261;SDS011;9873;52.236;21.002;2023-04-07T05:22:31;58.07;;;27.73;;
17261;SDS011;9873;52.236;21.002;2023-04-07T05:32:33;70.97;;;29.67;;
17261;SDS011;9873;52.236;21.002;2023-04-07T05:42:42;60.53;;;28.17;;
17261;SDS011;9873;52.236;21.002;2023-04-07T05:52:48;53.27;;;24.90;;
17261;SDS011;9873;52.236;21.002;2023-04-07T06:02:59;59.10;;;26.80;;
17261;SDS011;9873;52.236;21.002;2023-04-07T06:13:11;51.83;;;26.40;;
17261;SDS011;9873;52.236;21.002;2023-04-07T06:23:17;56.83;;;32.73;;
17261;SDS011;9873;52.236;21.002;2023-04-07T06:33:24;61.07;;;29.10;;
17261;SDS011;9873;52.236;21.002;2023-04-07T06:43:33;49.53;;;26.80;;
17261;SDS011;9873;52.236;21.002;2023-04-07T06:53:43;51.03;;;26.97;;
17261;SDS011;9873;52.236;21.002;2023-04-07T07:03:51;59.37;;;29.63;;
17261;SDS011;9873;52.236;21.002;2023-04-07T07:14:01;54.57;;;30.67;;
17261;SDS011;9873;52.236;21.002;2023-04-07T07:24:08;53.00;;;27.47;;
17261;SDS011;9873;52.236;21.002;2023-04-07T07:34:10;49.53;;;25.80;;
17261;SDS011;9873;52.236;21.002;2023-04-07T07:44:17;44.27;;;24.63;;
17261;SDS011;9873;52.236;21.002;2023-04-07T07:54:25;49.43;;;27.53;;
17261;SDS011;9873;52.236;21.002;2023-04-07T08:04:27;49.03;;;27.27;;
17261;SDS011;9873;52.236;21.002;2023-04-07T08:14:32;57.27;;;28.77;;
17261;SDS011;9873;52.236;21.002;2023-04-07T08:24:34;45.27;;;24.20;;
17261;SDS011;9873;52.236;21.002;2023-04-07T08:34:36;44.07;;;24.17;;
17261;SDS011;9873;52.236;21.002;2023-04-07T08:44:41;38.57;;;21.47;;
17261;SDS011;9873;52.236;21.002;2023-04-07T08:54:44;39.20;;;23.97;;
17261;SDS011;9873;52.236;21.002;2023-04-07T09:04:49;37.87;;;22.47;;
17261;SDS011;9873;52.236;21.002;2023-04-07T09:14:51;32.93;;;21.50;;
17261;SDS011;9873;52.236;21.002;2023-04-07T09:25:08;37.30;;;24.90;;
17261;SDS011;9873;52.236;21.002;2023-04-07T09:35:11;35.50;;;24.50;;
17261;SDS011;9873;52.236;21.002;2023-04-07T09:45:22;40.17;;;25.87;;
17261;SDS011;9873;52.236;21.002;2023-04-07T09:55:39;36.40;;;23.03;;
17261;SDS011;9873;52.236;21.002;2023-04-07T10:05:47;28.30;;;20.00;;
17261;SDS011;9873;52.236;21.002;2023-04-07T10:15:52;31.23;;;21.40;;
17261;SDS011;9873;52.236;21.002;2023-04-07T10:25:59;28.90;;;19.57;;
17261;SDS011;9873;52.236;21.002;2023-04-07T10:36:06;26.53;;;20.90;;
17261;SDS011;9873;52.236;21.002;2023-04-07T10:46:09;26.77;;;19.90;;
17261;SDS011;9873;52.236;21.002;2023-04-07T10:56:13;23.30;;;17.63;;
17261;SDS011;9873;52.236;21.002;2023-04-07T11:06:18;24.25;;;16.90;;
17261;SDS011;9873;52.236;21.002;2023-04-07T11:16:33;21.13;;;14.27;;
17261;SDS011;9873;52.236;21.002;2023-04-07T11:26:43;21.40;;;12.70;;
17261;SDS011;9873;52.236;21.002;2023-04-07T11:36:46;17.92;;;13.35;;
17261;SDS011;9873;52.236;21.002;2023-04-07T11:56:59;16.98;;;10.65;;
17261;SDS011;9873;52.236;21.002;2023-04-07T12:07:08;26.10;;;16.83;;
17261;SDS011;9873;52.236;21.002;2023-04-07T12:17:22;19.70;;;14.43;;
17261;SDS011;9873;52.236;21.002;2023-04-07T12:27:28;25.07;;;18.87;;
17261;SDS011;9873;52.236;21.002;2023-04-07T12:37:45;27.10;;;17.77;;
17261;SDS011;9873;52.236;21.002;2023-04-07T12:47:50;25.23;;;18.38;;
17261;SDS011;9873;52.236;21.002;2023-04-07T12:57:52;12.20;;;9.53;;
17261;SDS011;9873;52.236;21.002;2023-04-07T13:07:59;7.45;;;5.07;;
17261;SDS011;9873;52.236;21.002;2023-04-07T13:18:02;5.17;;;4.17;;
17261;SDS011;9873;52.236;21.002;2023-04-07T13:28:09;7.35;;;2.80;;
17261;SDS011;9873;52.236;21.002;2023-04-07T13:38:14;3.43;;;2.60;;
17261;SDS011;9873;52.236;21.002;2023-04-07T13:48:21;3.50;;;2.60;;
17261;SDS011;9873;52.236;21.002;2023-04-07T13:58:27;2.57;;;2.07;;
17261;SDS011;9873;52.236;21.002;2023-04-07T14:08:32;3.33;;;2.73;;
17261;SDS011;9873;52.236;21.002;2023-04-07T14:18:34;4.07;;;3.00;;
17261;SDS011;9873;52.236;21.002;2023-04-07T14:28:38;5.70;;;3.57;;
17261;SDS011;9873;52.236;21.002;2023-04-07T14:38:40;3.70;;;2.40;;
17261;SDS011;9873;52.236;21.002;2023-04-07T14:48:43;4.73;;;2.67;;
17261;SDS011;9873;52.236;21.002;2023-04-07T14:58:46;3.53;;;2.37;;
17261;SDS011;9873;52.236;21.002;2023-04-07T15:08:49;3.60;;;2.20;;
17261;SDS011;9873;52.236;21.002;2023-04-07T15:18:56;4.93;;;3.50;;
17261;SDS011;9873;52.236;21.002;2023-04-07T15:29:01;4.77;;;3.50;;
17261;SDS011;9873;52.236;21.002;2023-04-07T15:39:08;7.00;;;3.27;;
17261;SDS011;9873;52.236;21.002;2023-04-07T15:49:13;3.57;;;2.23;;
17261;SDS011;9873;52.236;21.002;2023-04-07T15:59:26;4.73;;;2.93;;
17261;SDS011;9873;52.236;21.002;2023-04-07T16:09:31;4.17;;;3.10;;
17261;SDS011;9873;52.236;21.002;2023-04-07T16:19:35;4.65;;;2.50;;
17261;SDS011;9873;52.236;21.002;2023-04-07T16:29:37;3.33;;;2.13;;
17261;SDS011;9873;52.236;21.002;2023-04-07T16:39:39;3.43;;;2.07;;
17261;SDS011;9873;52.236;21.002;2023-04-07T16:49:44;3.00;;;2.57;;
17261;SDS011;9873;52.236;21.002;2023-04-07T16:59:46;4.13;;;3.00;;
17261;SDS011;9873;52.236;21.002;2023-04-07T17:09:53;4.60;;;3.03;;
17261;SDS011;9873;52.236;21.002;2023-04-07T17:19:56;5.50;;;2.80;;
17261;SDS011;9873;52.236;21.002;2023-04-07T17:30:02;3.23;;;2.50;;
17261;SDS011;9873;52.236;21.002;2023-04-07T17:40:11;4.40;;;2.63;;
17261;SDS011;9873;52.236;21.002;2023-04-07T17:50:13;3.63;;;2.80;;
17261;SDS011;9873;52.236;21.002;2023-04-07T18:00:19;4.47;;;3.33;;
17261;SDS011;9873;52.236;21.002;2023-04-07T18:10:22;5.03;;;3.77;;
17261;SDS011;9873;52.236;21.002;2023-04-07T18:20:24;6.73;;;3.40;;
17261;SDS011;9873;52.236;21.002;2023-04-07T18:30:28;5.67;;;3.00;;
17261;SDS011;9873;52.236;21.002;2023-04-07T18:40:31;5.83;;;3.40;;
17261;SDS011;9873;52.236;21.002;2023-04-07T18:50:36;4.97;;;3.27;;
17261;SDS011;9873;52.236;21.002;2023-04-07T19:00:41;6.73;;;4.10;;
17261;SDS011;9873;52.236;21.002;2023-04-07T19:10:44;7.00;;;4.10;;
17261;SDS011;9873;52.236;21.002;2023-04-07T19:20:46;6.07;;;4.80;;
17261;SDS011;9873;52.236;21.002;2023-04-07T19:30:48;6.10;;;4.77;;
17261;SDS011;9873;52.236;21.002;2023-04-07T19:40:53;7.50;;;5.30;;
17261;SDS011;9873;52.236;21.002;2023-04-07T19:50:58;8.00;;;5.93;;
17261;SDS011;9873;52.236;21.002;2023-04-07T20:01:00;8.90;;;5.47;;
17261;SDS011;9873;52.236;21.002;2023-04-07T20:11:05;5.67;;;4.60;;
17261;SDS011;9873;52.236;21.002;2023-04-07T20:21:12;5.47;;;3.90;;
17261;SDS011;9873;52.236;21.002;2023-04-07T20:31:19;7.57;;;5.13;;
17261;SDS011;9873;52.236;21.002;2023-04-07T20:41:24;6.13;;;5.17;;
17261;SDS011;9873;52.236;21.002;2023-04-07T20:51:27;4.93;;;3.83;;
17261;SDS011;9873;52.236;21.002;2023-04-07T21:01:34;7.80;;;5.80;;
17261;SDS011;9873;52.236;21.002;2023-04-07T21:11:37;8.50;;;5.47;;
17261;SDS011;9873;52.236;21.002;2023-04-07T21:21:44;8.03;;;5.37;;
17261;SDS011;9873;52.236;21.002;2023-04-07T21:31:50;10.17;;;6.43;;
17261;SDS011;9873;52.236;21.002;2023-04-07T21:41:53;9.33;;;6.47;;
17261;SDS011;9873;52.236;21.002;2023-04-07T21:51:55;7.87;;;5.17;;
17261;SDS011;9873;52.236;21.002;2023-04-07T22:01:58;8.33;;;6.00;;
17261;SDS011;9873;52.236;21.002;2023-04-07T22:12:04;7.70;;;6.77;;
17261;SDS011;9873;52.236;21.002;2023-04-07T22:22:07;4.33;;;3.47;;
17261;SDS011;9873;52.236;21.002;2023-04-07T22:32:09;8.30;;;5.50;;
17261;SDS011;9873;52.236;21.002;2023-04-07T22:42:14;8.63;;;4.87;;
17261;SDS011;9873;52.236;21.002;2023-04-07T22:52:17;8.33;;;5.93;;
17261;SDS011;9873;52.236;21.002;2023-04-07T23:02:22;7.37;;;6.53;;
17261;SDS011;9873;52.236;21.002;2023-04-07T23:12:29;8.13;;;6.40;;
17261;SDS011;9873;52.236;21.002;2023-04-07T23:22:32;8.97;;;6.77;;
17261;SDS011;9873;52.236;21.002;2023-04-07T23:32:37;10.57;;;7.60;;
17261;SDS011;9873;52.236;21.002;2023-04-07T23:42:39;11.03;;;8.40;;
17261;SDS011;9873;52.236;21.002;2023-04-07T23:52:41;10.00;;;8.90;;
